Time;durP1;ratioP1;P1;durP2;ratioP2;P2;SDS_P1;SDS_P2;PMS_P1;PMS_P2;Temp;Humidity;BMP_temperature;BMP_pressure;BME280_temperature;BME280_humidity;BME280_pressure;Samples;Min_cycle;Max_cycle;Signal;HPM_P1;HPM_P2
2024/01/13 00:00:11;;;;;;;9.75;4.43;;;2.70;99.90;;;;;;4859430;29;20049;-79
2024/01/13 00:02:36;;;;;;;9.00;4.60;;;2.70;99.90;;;;;;4858525;29;20053;-80
2024/01/13 00:05:02;;;;;;;8.48;4.13;;;2.70;99.90;;;;;;4849424;29;20064;-80
2024/01/13 00:07:28;;;;;;;8.43;4.15;;;2.70;99.90;;;;;;4868399;29;20052;-80
2024/01/13 00:09:53;;;;;;;9.43;4.55;;;2.70;99.90;;;;;;4879351;29;20053;-80
2024/01/13 00:12:19;;;;;;;11.65;4.80;;;2.70;99.90;;;;;;4859824;29;20059;-80
2024/01/13 00:14:44;;;;;;;8.60;4.15;;;2.70;99.90;;;;;;4894609;29;20400;-79
2024/01/13 00:17:10;;;;;;;7.72;4.25;;;2.70;99.90;;;;;;4873265;29;20555;-80
2024/01/13 00:19:36;;;;;;;9.25;4.25;;;2.70;99.90;;;;;;4859887;29;20037;-80
2024/01/13 00:22:01;;;;;;;8.82;4.28;;;2.70;99.90;;;;;;4853228;29;20086;-80
2024/01/13 00:24:27;;;;;;;8.85;3.70;;;2.70;99.90;;;;;;4857930;29;20049;-80
2024/01/13 00:26:52;;;;;;;8.23;4.15;;;2.70;99.90;;;;;;4850563;29;20447;-79
2024/01/13 00:29:18;;;;;;;8.13;4.55;;;2.70;99.90;;;;;;4864184;29;20061;-80
2024/01/13 00:31:44;;;;;;;7.85;4.55;;;2.70;99.90;;;;;;4884751;29;20072;-81
2024/01/13 00:34:09;;;;;;;10.90;4.05;;;2.70;99.90;;;;;;4861649;29;20071;-80
2024/01/13 00:36:35;;;;;;;9.70;4.15;;;2.70;99.90;;;;;;4871940;29;20056;-81
2024/01/13 00:39:01;;;;;;;6.13;3.60;;;2.60;99.90;;;;;;4870782;29;20049;-80
2024/01/13 00:41:27;;;;;;;9.88;4.40;;;2.70;99.90;;;;;;4863556;29;20044;-80
2024/01/13 00:43:52;;;;;;;9.90;4.22;;;2.70;99.90;;;;;;4886345;29;20470;-80
2024/01/13 00:46:18;;;;;;;8.15;4.22;;;2.70;99.90;;;;;;4863824;29;20059;-80
2024/01/13 00:48:44;;;;;;;8.02;3.95;;;2.70;99.90;;;;;;4853100;29;20155;-80
2024/01/13 00:51:10;;;;;;;9.82;4.53;;;2.60;99.90;;;;;;4862287;29;20076;-80
2024/01/13 00:53:36;;;;;;;8.68;3.92;;;2.60;99.90;;;;;;4861273;29;20729;-80
2024/01/13 00:56:02;;;;;;;9.15;3.83;;;2.60;99.90;;;;;;4852432;29;20046;-79
2024/01/13 00:58:27;;;;;;;7.43;3.58;;;2.60;99.90;;;;;;4876040;29;20062;-79
2024/01/13 01:00:53;;;;;;;7.05;3.65;;;2.60;99.90;;;;;;4893308;29;20045;-79
2024/01/13 01:03:19;;;;;;;8.18;3.88;;;2.60;99.90;;;;;;4863170;29;20147;-80
2024/01/13 01:05:44;;;;;;;8.30;3.92;;;2.60;99.90;;;;;;4877496;29;20087;-80
2024/01/13 01:08:10;;;;;;;6.57;3.53;;;2.60;99.90;;;;;;4864906;29;20390;-80
2024/01/13 01:10:35;;;;;;;8.93;3.70;;;2.60;99.90;;;;;;4889266;29;20127;-80
2024/01/13 01:13:01;;;;;;;7.75;3.22;;;2.50;99.90;;;;;;4863252;29;20056;-80
2024/01/13 01:15:27;;;;;;;6.47;2.95;;;2.60;99.90;;;;;;4879739;29;20056;-80
2024/01/13 01:17:52;;;;;;;5.75;3.25;;;2.60;99.90;;;;;;4895077;29;20049;-80
2024/01/13 01:20:19;;;;;;;8.68;3.58;;;2.60;99.90;;;;;;4869368;29;20059;-80
2024/01/13 01:22:46;;;;;;;7.72;2.88;;;2.60;99.90;;;;;;4889161;29;20085;-80
2024/01/13 01:25:12;;;;;;;5.13;3.10;;;2.60;99.90;;;;;;4891919;29;20124;-79
2024/01/13 01:27:37;;;;;;;5.88;2.83;;;2.60;99.90;;;;;;4858753;29;20832;-80
2024/01/13 01:30:03;;;;;;;6.72;3.08;;;2.60;99.90;;;;;;4870494;29;20057;-80
2024/01/13 01:32:29;;;;;;;5.72;3.05;;;2.60;99.90;;;;;;4866633;29;20093;-79
2024/01/13 01:34:54;;;;;;;6.32;3.08;;;2.60;99.90;;;;;;4870245;29;20057;-79
2024/01/13 01:37:20;;;;;;;6.25;3.38;;;2.60;99.90;;;;;;4862753;29;20836;-80
2024/01/13 01:39:46;;;;;;;6.53;2.90;;;2.60;99.90;;;;;;4876111;29;20067;-80
2024/01/13 01:42:11;;;;;;;6.82;3.30;;;2.60;99.90;;;;;;4889730;29;20132;-80
2024/01/13 01:44:37;;;;;;;6.90;3.10;;;2.60;99.90;;;;;;4860167;29;20147;-80
2024/01/13 01:47:04;;;;;;;7.03;3.10;;;2.60;99.90;;;;;;4857734;29;20079;-80
2024/01/13 01:49:30;;;;;;;5.47;2.80;;;2.60;99.90;;;;;;4892703;29;20093;-80
2024/01/13 01:51:55;;;;;;;5.55;2.95;;;2.60;99.90;;;;;;4896910;29;20493;-80
2024/01/13 01:54:21;;;;;;;6.07;2.78;;;2.60;99.90;;;;;;4889346;29;20048;-80
2024/01/13 01:56:47;;;;;;;5.55;2.83;;;2.60;99.90;;;;;;4860675;29;20171;-80
2024/01/13 01:59:13;;;;;;;5.32;2.97;;;2.60;99.90;;;;;;4885598;29;20048;-79
2024/01/13 02:01:38;;;;;;;6.40;2.75;;;2.60;99.90;;;;;;4876406;29;20267;-80
2024/01/13 02:04:04;;;;;;;5.28;2.85;;;2.60;99.90;;;;;;4882874;29;20060;-80
2024/01/13 02:06:30;;;;;;;4.22;2.38;;;2.60;99.90;;;;;;4855502;29;20520;-80
2024/01/13 02:08:56;;;;;;;5.78;2.30;;;2.70;99.90;;;;;;4885023;29;20040;-80
2024/01/13 02:11:21;;;;;;;4.55;2.25;;;2.60;99.90;;;;;;4856535;29;20081;-80
2024/01/13 02:13:48;;;;;;;4.72;2.30;;;2.70;99.90;;;;;;4870142;29;20080;-80
2024/01/13 02:16:15;;;;;;;6.38;3.03;;;2.70;99.90;;;;;;4859852;29;20188;-80
2024/01/13 02:18:41;;;;;;;7.13;2.67;;;2.70;99.90;;;;;;4889974;29;20072;-80
2024/01/13 02:21:07;;;;;;;4.22;2.08;;;2.70;99.90;;;;;;4869123;29;20049;-80
2024/01/13 02:23:33;;;;;;;4.65;2.60;;;2.70;99.90;;;;;;4860577;29;20828;-80
2024/01/13 02:25:58;;;;;;;5.00;2.53;;;2.70;99.90;;;;;;4879673;29;20048;-79
2024/01/13 02:28:24;;;;;;;5.40;2.78;;;2.70;99.90;;;;;;4886574;29;20758;-79
2024/01/13 02:30:50;;;;;;;5.03;2.63;;;2.70;99.90;;;;;;4879730;29;20103;-80
2024/01/13 02:33:16;;;;;;;10.68;2.70;;;2.70;99.90;;;;;;4882216;29;20072;-80
2024/01/13 02:35:41;;;;;;;6.05;2.50;;;2.70;99.90;;;;;;4873380;29;20193;-78
2024/01/13 02:38:07;;;;;;;5.78;3.20;;;2.70;99.90;;;;;;4867559;29;20105;-79
2024/01/13 02:40:34;;;;;;;6.03;2.70;;;2.70;99.90;;;;;;4885968;29;20080;-79
2024/01/13 02:42:59;;;;;;;7.80;2.88;;;2.70;99.90;;;;;;4870735;29;20136;-79
2024/01/13 02:45:25;;;;;;;4.80;2.47;;;2.70;99.90;;;;;;4865936;29;20486;-79
2024/01/13 02:48:02;;;;;;;10.05;3.33;;;2.70;99.90;;;;;;4865015;29;20055;-78
2024/01/13 02:50:28;;;;;;;7.05;3.70;;;2.70;99.90;;;;;;4854944;29;20061;-78
2024/01/13 02:52:54;;;;;;;5.40;3.40;;;2.70;99.90;;;;;;4855049;29;20585;-79
2024/01/13 02:55:19;;;;;;;5.43;3.10;;;2.70;99.90;;;;;;4875410;29;20057;-79
2024/01/13 02:57:45;;;;;;;6.03;3.17;;;2.70;99.90;;;;;;4873974;29;20447;-79
2024/01/13 03:00:13;;;;;;;10.18;3.47;;;2.80;99.90;;;;;;4843437;29;20053;-80
2024/01/13 03:02:39;;;;;;;6.95;2.95;;;2.70;99.90;;;;;;4870288;29;20785;-80
2024/01/13 03:05:07;;;;;;;7.95;3.80;;;2.70;99.90;;;;;;4852592;29;20056;-80
2024/01/13 03:07:33;;;;;;;8.43;4.43;;;2.70;99.90;;;;;;4844367;29;20049;-80
2024/01/13 03:09:58;;;;;;;8.45;3.80;;;2.70;99.90;;;;;;4855910;29;20060;-80
2024/01/13 03:12:24;;;;;;;11.85;4.28;;;2.70;99.90;;;;;;4852952;29;20076;-80
2024/01/13 03:14:50;;;;;;;8.05;3.70;;;2.70;99.90;;;;;;4854311;29;20059;-80
2024/01/13 03:17:15;;;;;;;19.52;12.48;;;2.80;99.90;;;;;;4844429;29;20121;-80
2024/01/13 03:19:41;;;;;;;5.60;3.10;;;2.80;99.90;;;;;;4845355;29;20523;-80
2024/01/13 03:22:06;;;;;;;7.45;3.63;;;2.80;99.90;;;;;;4887596;29;20037;-80
2024/01/13 03:24:32;;;;;;;7.70;3.65;;;2.70;99.90;;;;;;4859777;29;20056;-80
2024/01/13 03:26:58;;;;;;;6.03;3.10;;;2.70;99.90;;;;;;4895486;29;20962;-80
2024/01/13 03:29:23;;;;;;;9.93;3.55;;;2.80;99.90;;;;;;4857737;29;20728;-80
2024/01/13 03:31:49;;;;;;;5.80;2.92;;;2.70;99.90;;;;;;4863068;29;20065;-80
2024/01/13 03:34:14;;;;;;;7.85;3.22;;;2.80;99.90;;;;;;4864920;29;20126;-80
2024/01/13 03:36:40;;;;;;;6.40;3.50;;;2.80;99.90;;;;;;4848077;29;20056;-80
2024/01/13 03:39:06;;;;;;;8.68;3.58;;;2.80;99.90;;;;;;4870160;29;20176;-80
2024/01/13 03:41:31;;;;;;;6.88;3.47;;;2.80;99.90;;;;;;4884481;29;20106;-80
2024/01/13 03:43:57;;;;;;;5.43;3.20;;;2.80;99.90;;;;;;4874591;29;20461;-80
2024/01/13 03:46:23;;;;;;;8.10;4.15;;;2.80;99.90;;;;;;4885677;29;20041;-80
2024/01/13 03:48:49;;;;;;;9.93;3.90;;;2.80;99.90;;;;;;4862404;29;20049;-80
2024/01/13 03:51:16;;;;;;;8.00;3.67;;;2.80;99.90;;;;;;4873837;29;20120;-80
2024/01/13 03:53:42;;;;;;;8.27;3.85;;;2.80;99.90;;;;;;4890378;29;20128;-80
2024/01/13 03:56:08;;;;;;;7.28;4.03;;;2.80;99.90;;;;;;4873172;29;20137;-80
2024/01/13 03:58:37;;;;;;;7.25;3.65;;;2.80;99.90;;;;;;4879782;29;20064;-80
2024/01/13 04:01:03;;;;;;;8.95;4.00;;;2.80;99.90;;;;;;4885394;29;20049;-79
2024/01/13 04:03:28;;;;;;;8.50;3.80;;;2.80;99.90;;;;;;4881603;29;20392;-80
2024/01/13 04:05:54;;;;;;;7.15;3.60;;;2.80;99.90;;;;;;4874379;29;20045;-80
2024/01/13 04:08:21;;;;;;;8.95;4.30;;;2.80;99.90;;;;;;4869346;29;22444;-80
2024/01/13 04:10:46;;;;;;;7.38;3.65;;;2.80;99.90;;;;;;4884168;29;20132;-80
2024/01/13 04:13:13;;;;;;;8.32;3.90;;;2.80;99.90;;;;;;4874430;29;20268;-80
2024/01/13 04:15:39;;;;;;;10.05;4.05;;;2.80;99.90;;;;;;4855620;29;20107;-80
2024/01/13 04:18:05;;;;;;;9.32;4.68;;;2.80;99.90;;;;;;4864121;29;20041;-80
2024/01/13 04:20:31;;;;;;;8.70;3.75;;;2.80;99.90;;;;;;4882908;29;20040;-80
2024/01/13 04:22:56;;;;;;;8.23;4.07;;;2.80;99.90;;;;;;4855934;29;20045;-80
2024/01/13 04:25:22;;;;;;;7.32;3.97;;;2.80;99.90;;;;;;4848591;29;20121;-80
2024/01/13 04:27:48;;;;;;;11.93;4.43;;;2.80;99.90;;;;;;4854200;29;20045;-80
2024/01/13 04:30:14;;;;;;;8.98;4.03;;;2.80;99.90;;;;;;4878341;29;20052;-80
2024/01/13 04:32:40;;;;;;;7.97;4.47;;;2.80;99.90;;;;;;4872635;29;20041;-80
2024/01/13 04:35:06;;;;;;;8.18;4.32;;;2.70;99.90;;;;;;4876501;29;20041;-80
2024/01/13 04:37:32;;;;;;;7.90;3.70;;;2.70;99.90;;;;;;4847019;29;20514;-80
2024/01/13 04:39:58;;;;;;;7.80;4.00;;;2.70;99.90;;;;;;4879489;29;20200;-80
2024/01/13 04:42:23;;;;;;;9.15;4.05;;;2.70;99.90;;;;;;4844933;29;20117;-81
2024/01/13 04:44:49;;;;;;;9.23;4.45;;;2.70;99.90;;;;;;4853687;29;20040;-80
2024/01/13 04:47:15;;;;;;;7.82;3.50;;;2.80;99.90;;;;;;4857968;29;20637;-80
2024/01/13 04:49:40;;;;;;;8.18;4.10;;;2.80;99.90;;;;;;4865590;29;20048;-81
2024/01/13 04:52:06;;;;;;;7.00;3.63;;;2.70;99.90;;;;;;4846111;29;20492;-80
2024/01/13 04:54:31;;;;;;;8.95;3.55;;;2.70;99.90;;;;;;4869447;29;20053;-80
2024/01/13 04:56:57;;;;;;;7.72;3.63;;;2.70;99.90;;;;;;4873546;29;20064;-80
2024/01/13 04:59:23;;;;;;;7.07;3.83;;;2.70;99.90;;;;;;4886853;29;20052;-80
2024/01/13 05:01:48;;;;;;;9.70;3.53;;;2.70;99.90;;;;;;4860936;29;20055;-80
2024/01/13 05:04:14;;;;;;;9.48;3.22;;;2.70;99.90;;;;;;4869501;29;20482;-80
2024/01/13 05:06:40;;;;;;;7.10;3.33;;;2.70;99.90;;;;;;4854163;29;20060;-80
2024/01/13 05:09:05;;;;;;;6.57;3.40;;;2.70;99.90;;;;;;4863382;29;20040;-80
2024/01/13 05:11:31;;;;;;;9.20;3.53;;;2.70;99.90;;;;;;4881115;29;20055;-80
2024/01/13 05:13:56;;;;;;;9.25;4.00;;;2.70;99.90;;;;;;4864039;29;20057;-80
2024/01/13 05:16:22;;;;;;;6.80;3.17;;;2.70;99.90;;;;;;4867476;29;20584;-80
2024/01/13 05:18:48;;;;;;;6.88;3.95;;;2.80;99.90;;;;;;4862555;29;20477;-80
2024/01/13 05:21:13;;;;;;;7.70;3.65;;;2.70;99.90;;;;;;4853239;29;20497;-80
2024/01/13 05:23:39;;;;;;;10.93;4.95;;;2.80;99.90;;;;;;4865939;29;20046;-80
2024/01/13 05:26:04;;;;;;;7.93;3.58;;;2.80;99.90;;;;;;4890286;29;20477;-80
2024/01/13 05:28:30;;;;;;;10.00;3.30;;;2.80;99.90;;;;;;4873634;29;20052;-80
2024/01/13 05:30:56;;;;;;;7.60;3.17;;;2.80;99.90;;;;;;4856839;29;20051;-80
2024/01/13 05:33:21;;;;;;;8.63;3.58;;;2.80;99.90;;;;;;4851756;29;20133;-80
2024/01/13 05:35:47;;;;;;;8.88;3.70;;;2.80;99.90;;;;;;4849812;29;20124;-80
2024/01/13 05:38:12;;;;;;;8.85;3.42;;;2.80;99.90;;;;;;4850439;29;20140;-80
2024/01/13 05:40:41;;;;;;;6.72;2.97;;;2.80;99.90;;;;;;4854380;29;20054;-80
2024/01/13 05:43:07;;;;;;;5.95;3.03;;;2.70;99.90;;;;;;4893238;29;20045;-80
2024/01/13 05:45:33;;;;;;;7.22;2.80;;;2.70;99.90;;;;;;4880514;29;20049;-80
2024/01/13 05:48:00;;;;;;;7.53;3.13;;;2.70;99.90;;;;;;4866299;29;20048;-80
2024/01/13 05:50:27;;;;;;;6.45;2.80;;;2.70;99.90;;;;;;4859257;29;20049;-80
2024/01/13 05:52:52;;;;;;;7.18;2.90;;;2.70;99.90;;;;;;4863392;29;20052;-80
2024/01/13 05:55:18;;;;;;;7.75;3.33;;;2.70;99.90;;;;;;4873268;29;20401;-80
2024/01/13 05:57:44;;;;;;;6.28;2.72;;;2.70;99.90;;;;;;4850370;29;20059;-80
2024/01/13 06:00:10;;;;;;;5.93;3.00;;;2.70;99.90;;;;;;4874507;29;20041;-80
2024/01/13 06:02:35;;;;;;;4.38;2.35;;;2.70;99.90;;;;;;4854880;29;20482;-80
2024/01/13 06:05:01;;;;;;;6.72;2.67;;;2.70;99.90;;;;;;4857166;29;20047;-80
2024/01/13 06:07:27;;;;;;;6.95;2.90;;;2.70;99.90;;;;;;4862232;29;20131;-81
2024/01/13 06:09:52;;;;;;;5.75;2.47;;;2.70;99.90;;;;;;4877983;29;20715;-80
2024/01/13 06:12:20;;;;;;;7.93;2.97;;;2.70;99.90;;;;;;4856293;29;20049;-80
2024/01/13 06:14:45;;;;;;;9.88;2.45;;;2.70;99.90;;;;;;4853351;29;20048;-80
2024/01/13 06:17:11;;;;;;;5.00;2.80;;;2.70;99.90;;;;;;4867040;29;20401;-80
2024/01/13 06:19:37;;;;;;;8.07;3.03;;;2.70;99.90;;;;;;4860135;29;20105;-80
2024/01/13 06:22:03;;;;;;;7.88;3.10;;;2.70;99.90;;;;;;4879169;29;20516;-80
2024/01/13 06:24:28;;;;;;;7.80;2.85;;;2.70;99.90;;;;;;4869199;29;20614;-80
2024/01/13 06:26:54;;;;;;;6.78;2.95;;;2.80;99.90;;;;;;4873500;29;20053;-80
2024/01/13 06:29:19;;;;;;;5.85;2.60;;;2.80;99.90;;;;;;4860990;29;20068;-80
2024/01/13 06:31:45;;;;;;;9.30;3.53;;;2.80;99.90;;;;;;4892754;29;20096;-80
2024/01/13 06:34:11;;;;;;;7.20;3.35;;;2.80;99.90;;;;;;4847317;29;20045;-80
2024/01/13 06:36:36;;;;;;;8.68;3.63;;;2.80;99.90;;;;;;4866667;29;20109;-80
2024/01/13 06:39:02;;;;;;;5.57;3.28;;;2.80;99.90;;;;;;4859873;29;20132;-80
2024/01/13 06:41:28;;;;;;;7.43;2.78;;;2.80;99.90;;;;;;4856120;29;20135;-80
2024/01/13 06:43:53;;;;;;;6.82;3.22;;;2.80;99.90;;;;;;4868295;29;20069;-80
2024/01/13 06:46:19;;;;;;;6.00;2.90;;;2.80;99.90;;;;;;4852423;29;20052;-80
2024/01/13 06:48:45;;;;;;;8.88;3.17;;;2.80;99.90;;;;;;4856056;29;20041;-80
2024/01/13 06:51:11;;;;;;;6.53;3.38;;;2.80;99.90;;;;;;4862805;29;20383;-81
2024/01/13 06:53:36;;;;;;;8.73;3.80;;;2.70;99.90;;;;;;4859479;29;20045;-80
2024/01/13 06:56:03;;;;;;;7.95;3.40;;;2.70;99.90;;;;;;4859221;29;20150;-80
2024/01/13 06:58:28;;;;;;;7.55;2.92;;;2.70;99.90;;;;;;4870066;29;20053;-80
2024/01/13 07:00:54;;;;;;;8.77;3.97;;;2.70;99.90;;;;;;4887569;29;20052;-79
2024/01/13 07:03:19;;;;;;;7.38;3.35;;;2.70;99.90;;;;;;4889581;29;20044;-80
2024/01/13 07:05:45;;;;;;;11.50;3.90;;;2.80;99.90;;;;;;4894987;29;20127;-78
2024/01/13 07:08:11;;;;;;;10.40;4.43;;;2.80;99.90;;;;;;4851745;29;20097;-82
2024/01/13 07:10:36;;;;;;;10.32;4.30;;;2.80;99.90;;;;;;4847045;29;20105;-78
2024/01/13 07:13:02;;;;;;;10.38;4.43;;;2.80;99.90;;;;;;4843578;29;20674;-77
2024/01/13 07:15:28;;;;;;;10.20;4.00;;;2.80;99.90;;;;;;4846992;29;20568;-79
2024/01/13 07:17:54;;;;;;;20.38;12.75;;;2.80;99.90;;;;;;4861334;29;20132;-78
2024/01/13 07:20:19;;;;;;;11.35;4.78;;;2.90;99.90;;;;;;4864526;29;20056;-77
2024/01/13 07:22:45;;;;;;;12.45;4.82;;;2.80;99.90;;;;;;4862563;29;20052;-78
2024/01/13 07:25:11;;;;;;;10.98;4.47;;;2.90;99.90;;;;;;4872077;29;20509;-78
2024/01/13 07:27:37;;;;;;;9.15;4.03;;;2.90;99.90;;;;;;4871469;29;20091;-77
2024/01/13 07:30:04;;;;;;;8.52;3.95;;;2.90;99.90;;;;;;4861261;29;20051;-77
2024/01/13 07:32:30;;;;;;;8.38;4.18;;;2.90;99.90;;;;;;4868508;29;20044;-77
2024/01/13 07:34:55;;;;;;;8.05;4.18;;;2.90;99.90;;;;;;4860250;29;20104;-76
2024/01/13 07:37:21;;;;;;;7.80;3.85;;;2.90;99.90;;;;;;4852513;29;20140;-77
2024/01/13 07:39:47;;;;;;;8.15;3.38;;;2.90;99.90;;;;;;4881106;29;20134;-77
2024/01/13 07:42:13;;;;;;;9.32;3.78;;;2.90;99.90;;;;;;4851334;29;20041;-77
2024/01/13 07:44:41;;;;;;;8.00;3.55;;;2.90;99.90;;;;;;4866821;29;20056;-76
2024/01/13 07:47:07;;;;;;;7.20;3.30;;;3.00;99.90;;;;;;4846755;29;20056;-77
2024/01/13 07:49:33;;;;;;;8.30;3.60;;;3.00;99.90;;;;;;4852142;29;20049;-77
2024/01/13 07:51:59;;;;;;;9.70;4.13;;;3.00;99.90;;;;;;4871493;29;20174;-77
2024/01/13 07:54:24;;;;;;;8.25;3.78;;;3.00;99.90;;;;;;4871027;29;20057;-76
2024/01/13 07:56:52;;;;;;;7.53;3.80;;;3.00;99.90;;;;;;4857274;29;20045;-77
2024/01/13 07:59:18;;;;;;;;;;;3.00;99.90;;;;;;4852777;29;20057;-77
2024/01/13 08:01:45;;;;;;;10.02;4.03;;;3.00;99.90;;;;;;4869037;29;19939;-77
2024/01/13 08:04:12;;;;;;;7.70;3.83;;;3.10;99.90;;;;;;4877188;29;20640;-77
2024/01/13 08:06:38;;;;;;;8.88;4.18;;;3.00;99.90;;;;;;4860653;29;20343;-77
2024/01/13 08:09:04;;;;;;;6.82;3.40;;;3.00;99.90;;;;;;4856517;29;20041;-77
2024/01/13 08:11:30;;;;;;;6.70;3.28;;;3.00;99.90;;;;;;4858576;29;20058;-77
2024/01/13 08:13:57;;;;;;;9.65;4.03;;;3.00;99.90;;;;;;4857205;29;20130;-77
2024/01/13 08:16:23;;;;;;;7.55;3.38;;;3.00;99.90;;;;;;4851266;29;20049;-77
2024/01/13 08:18:49;;;;;;;7.75;3.92;;;3.00;99.90;;;;;;4852565;29;20476;-76
2024/01/13 08:21:15;;;;;;;7.70;3.35;;;3.10;99.90;;;;;;4870987;29;20723;-77
2024/01/13 08:23:41;;;;;;;10.38;3.88;;;3.10;99.90;;;;;;4850275;29;20132;-77
2024/01/13 08:26:07;;;;;;;8.73;3.60;;;3.10;99.90;;;;;;4863480;29;20068;-77
2024/01/13 08:28:33;;;;;;;8.18;3.60;;;3.10;99.90;;;;;;4868286;29;20456;-77
2024/01/13 08:30:59;;;;;;;9.35;4.18;;;3.00;99.90;;;;;;4854568;29;20055;-77
2024/01/13 08:33:25;;;;;;;8.43;3.97;;;3.10;99.90;;;;;;4871562;29;20049;-77
2024/01/13 08:35:51;;;;;;;8.93;4.07;;;3.00;99.90;;;;;;4853767;29;20053;-77
2024/01/13 08:38:17;;;;;;;8.63;3.97;;;3.10;99.90;;;;;;4853270;29;20108;-77
2024/01/13 08:40:46;;;;;;;8.57;3.85;;;3.10;99.90;;;;;;4852310;29;20100;-77
2024/01/13 08:43:12;;;;;;;9.52;3.97;;;3.10;99.90;;;;;;4868085;29;20749;-77
2024/01/13 08:45:38;;;;;;;7.30;3.73;;;3.10;99.90;;;;;;4857179;29;20053;-77
2024/01/13 08:48:07;;;;;;;7.00;3.00;;;3.10;99.90;;;;;;4857458;29;20108;-77
2024/01/13 08:50:33;;;;;;;7.15;3.17;;;3.10;99.90;;;;;;4861872;29;20566;-77
2024/01/13 08:52:58;;;;;;;7.53;3.72;;;3.10;99.90;;;;;;4873906;29;20049;-76
2024/01/13 08:55:24;;;;;;;7.70;3.92;;;3.10;99.90;;;;;;4848217;29;20049;-77
2024/01/13 08:57:50;;;;;;;7.20;2.78;;;3.10;99.90;;;;;;4877763;29;20409;-77
2024/01/13 09:00:16;;;;;;;6.13;3.05;;;3.10;99.90;;;;;;4869776;29;20044;-76
2024/01/13 09:02:43;;;;;;;6.28;3.08;;;3.10;99.90;;;;;;4856651;29;20131;-78
2024/01/13 09:05:09;;;;;;;4.82;2.90;;;3.20;99.90;;;;;;4875549;29;20045;-78
2024/01/13 09:07:36;;;;;;;7.32;3.20;;;3.10;99.90;;;;;;4848772;29;20140;-77
2024/01/13 09:10:06;;;;;;;8.57;3.58;;;3.10;99.90;;;;;;4859930;29;20506;-76
2024/01/13 09:12:31;;;;;;;7.47;3.22;;;3.10;99.90;;;;;;4857874;29;20041;-75
2024/01/13 09:14:57;;;;;;;8.40;3.75;;;3.20;99.90;;;;;;4852966;29;20073;-79
2024/01/13 09:17:23;;;;;;;8.70;4.38;;;3.20;99.90;;;;;;4867894;29;20041;-80
2024/01/13 09:19:49;;;;;;;10.20;4.60;;;3.20;99.90;;;;;;4864336;29;20049;-77
2024/01/13 09:22:15;;;;;;;9.68;4.20;;;3.20;99.90;;;;;;4852075;29;20401;-81
2024/01/13 09:24:44;;;;;;;16.67;5.20;;;3.20;99.90;;;;;;4844676;29;20049;-82
2024/01/13 09:27:10;;;;;;;10.60;5.05;;;3.20;99.90;;;;;;4842867;29;20045;-81
2024/01/13 09:29:35;;;;;;;12.10;5.75;;;3.30;99.90;;;;;;4872294;29;20056;-81
2024/01/13 09:32:04;;;;;;;14.35;6.63;;;3.30;99.90;;;;;;4866626;29;20037;-81
2024/01/13 09:34:30;;;;;;;21.58;8.05;;;3.30;99.90;;;;;;4861772;29;20057;-79
2024/01/13 09:36:55;;;;;;;16.85;8.15;;;3.30;99.90;;;;;;4869518;29;20705;-79
2024/01/13 09:39:21;;;;;;;22.08;9.77;;;3.40;99.90;;;;;;4869496;29;20402;-76
2024/01/13 09:41:48;;;;;;;19.30;9.10;;;3.40;99.90;;;;;;4845574;29;20124;-80
2024/01/13 09:44:23;;;;;;;28.38;9.40;;;3.40;99.90;;;;;;4845228;29;20521;-76
2024/01/13 09:46:51;;;;;;;23.25;10.77;;;3.40;99.90;;;;;;4871627;29;20133;-78
2024/01/13 09:49:18;;;;;;;22.95;10.43;;;3.50;99.90;;;;;;4855334;29;20041;-76
2024/01/13 09:51:49;;;;;;;24.38;11.82;;;3.40;99.90;;;;;;4872314;29;20045;-77
2024/01/13 09:54:25;;;;;;;27.83;11.57;;;3.40;99.90;;;;;;4861318;29;20152;-81
2024/01/13 09:56:52;;;;;;;30.40;12.27;;;3.50;99.90;;;;;;4847726;29;20045;-80
2024/01/13 09:59:22;;;;;;;30.27;13.60;;;3.50;99.90;;;;;;4874066;29;20317;-81
2024/01/13 10:01:48;;;;;;;38.13;13.48;;;3.50;99.90;;;;;;4852856;29;20661;-81
2024/01/13 10:04:14;;;;;;;28.48;12.90;;;3.50;99.90;;;;;;4864409;29;20073;-82
2024/01/13 10:06:41;;;;;;;37.28;14.38;;;3.50;99.90;;;;;;4866647;29;20041;-81
2024/01/13 10:09:07;;;;;;;32.30;14.20;;;3.50;99.90;;;;;;4852809;29;20056;-77
2024/01/13 10:11:33;;;;;;;32.33;13.95;;;3.50;99.90;;;;;;4866429;29;20185;-79
2024/01/13 10:14:00;;;;;;;31.30;14.25;;;3.50;99.90;;;;;;4873030;29;20061;-75
2024/01/13 10:16:30;;;;;;;32.90;14.70;;;3.50;99.90;;;;;;4852250;29;20057;-78
2024/01/13 10:18:58;;;;;;;38.15;15.02;;;3.50;99.90;;;;;;4849596;29;20301;-81
2024/01/13 10:21:24;;;;;;;43.40;15.98;;;3.50;99.90;;;;;;4844113;29;20128;-77
2024/01/13 10:23:50;;;;;;;36.50;15.27;;;3.50;99.90;;;;;;4844935;29;20135;-81
2024/01/13 10:26:16;;;;;;;43.70;18.63;;;3.50;99.90;;;;;;4874969;29;20060;-83
2024/01/13 10:28:43;;;;;;;38.45;16.02;;;3.50;99.90;;;;;;4854583;29;20053;-76
2024/01/13 10:31:09;;;;;;;39.40;16.65;;;3.50;99.90;;;;;;4859168;29;20128;-76
2024/01/13 10:33:35;;;;;;;40.05;16.20;;;3.50;99.90;;;;;;4841216;29;20554;-75
2024/01/13 10:36:01;;;;;;;38.78;15.32;;;3.50;99.90;;;;;;4856701;29;20097;-77
2024/01/13 10:38:26;;;;;;;36.40;16.65;;;3.50;99.90;;;;;;4861664;29;20069;-75
2024/01/13 10:40:53;;;;;;;47.30;17.08;;;3.50;99.90;;;;;;4872170;29;20045;-77
2024/01/13 10:43:22;;;;;;;41.45;17.92;;;3.50;99.90;;;;;;4883008;29;20128;-76
2024/01/13 10:45:56;;;;;;;38.15;16.20;;;3.60;99.90;;;;;;4859603;29;20131;-77
2024/01/13 10:48:36;;;;;;;40.03;17.02;;;3.60;99.90;;;;;;4855819;29;20056;-77
2024/01/13 10:51:02;;;;;;;44.00;18.42;;;3.60;99.90;;;;;;4846592;29;20064;-77
2024/01/13 10:53:30;;;;;;;45.95;18.67;;;3.60;99.90;;;;;;4862548;29;20132;-77
2024/01/13 10:55:57;;;;;;;43.53;18.85;;;3.60;99.90;;;;;;4856512;29;20573;-78
2024/01/13 10:58:24;;;;;;;42.50;17.25;;;3.60;99.90;;;;;;4869358;29;20049;-77
2024/01/13 11:00:51;;;;;;;40.90;18.23;;;3.60;99.90;;;;;;4884948;29;20045;-78
2024/01/13 11:03:18;;;;;;;38.80;17.75;;;3.60;99.90;;;;;;4856546;29;20080;-85
2024/01/13 11:05:44;;;;;;;42.07;18.63;;;3.70;99.90;;;;;;4849670;29;20049;-84
2024/01/13 11:08:10;;;;;;;35.38;16.73;;;3.60;99.90;;;;;;4851612;29;20806;-83
2024/01/13 11:10:42;;;;;;;34.47;14.97;;;3.60;99.90;;;;;;4861638;29;20071;-83
2024/01/13 11:13:37;;;;;;;36.60;16.77;;;3.60;99.90;;;;;;4863073;29;20671;-78
2024/01/13 11:16:06;;;;;;;42.95;18.00;;;3.70;99.90;;;;;;4859257;29;20224;-82
2024/01/13 11:18:45;;;;;;;41.55;17.73;;;3.70;99.90;;;;;;4847476;29;20599;-82
2024/01/13 11:21:11;;;;;;;39.22;18.48;;;3.70;99.90;;;;;;4870442;29;21275;-82
2024/01/13 11:23:46;;;;;;;41.03;18.38;;;3.70;99.90;;;;;;4862155;29;20381;-83
2024/01/13 11:26:15;;;;;;;39.35;19.20;;;3.70;99.90;;;;;;4859754;29;20057;-80
2024/01/13 11:28:48;;;;;;;45.67;19.83;;;3.70;99.90;;;;;;4887259;29;20045;-82
2024/01/13 11:31:36;;;;;;;40.70;20.70;;;3.70;99.90;;;;;;4847154;29;20116;-81
2024/01/13 11:34:03;;;;;;;43.90;20.60;;;3.70;99.90;;;;;;4871354;29;20390;-83
2024/01/13 11:36:31;;;;;;;;;;;3.70;99.90;;;;;;4877254;29;20057;-82
2024/01/13 11:38:58;;;;;;;40.47;19.88;;;3.70;99.90;;;;;;4870435;29;19924;-81
2024/01/13 11:41:37;;;;;;;42.40;20.50;;;3.70;99.90;;;;;;4851710;29;20052;-81
2024/01/13 11:44:04;;;;;;;40.85;20.50;;;3.70;99.90;;;;;;4854167;29;20057;-81
2024/01/13 11:46:33;;;;;;;43.53;19.13;;;3.60;99.90;;;;;;4875716;29;20040;-79
2024/01/13 11:49:03;;;;;;;45.80;21.00;;;3.60;99.90;;;;;;4870894;29;20477;-83
2024/01/13 11:51:57;;;;;;;44.47;21.17;;;3.60;99.90;;;;;;4887613;29;20041;-83
2024/01/13 11:54:23;;;;;;;45.35;20.85;;;3.60;99.90;;;;;;4854389;29;20068;-84
2024/01/13 11:56:50;;;;;;;46.42;21.75;;;3.60;99.90;;;;;;4854817;29;20044;-80
2024/01/13 11:59:16;;;;;;;49.38;22.65;;;3.60;99.90;;;;;;4852818;29;20487;-81
2024/01/13 12:01:43;;;;;;;45.85;22.83;;;3.60;99.90;;;;;;4868300;29;20043;-82
2024/01/13 12:04:09;;;;;;;51.85;22.90;;;3.60;99.90;;;;;;4856796;29;20072;-83
2024/01/13 12:06:35;;;;;;;52.42;23.67;;;3.60;99.90;;;;;;4854031;29;20061;-82
2024/01/13 12:09:01;;;;;;;52.63;22.40;;;3.60;99.90;;;;;;4874676;29;20103;-80
2024/01/13 12:11:27;;;;;;;49.80;23.25;;;3.60;99.90;;;;;;4877252;29;20045;-80
2024/01/13 12:13:53;;;;;;;49.67;22.60;;;3.60;99.90;;;;;;4873415;29;20125;-81
2024/01/13 12:16:19;;;;;;;47.45;21.30;;;3.60;99.90;;;;;;4855737;29;20057;-80
2024/01/13 12:18:46;;;;;;;52.22;22.60;;;3.60;99.90;;;;;;4874770;29;20045;-81
2024/01/13 12:21:14;;;;;;;49.90;23.83;;;3.60;99.90;;;;;;4855718;29;20497;-80
2024/01/13 12:23:40;;;;;;;;;;;3.60;99.90;;;;;;4874475;29;20690;-82
2024/01/13 12:26:06;;;;;;;51.20;22.13;;;3.60;99.90;;;;;;4859190;29;19943;-77
2024/01/13 12:28:32;;;;;;;42.83;18.13;;;3.60;99.90;;;;;;4855810;29;20041;-78
2024/01/13 12:31:02;;;;;;;46.83;21.80;;;3.60;99.90;;;;;;4872904;29;20081;-83
2024/01/13 12:33:28;;;;;;;47.08;21.15;;;3.60;99.90;;;;;;4874548;29;20100;-82
2024/01/13 12:36:00;;;;;;;48.47;21.42;;;3.60;99.90;;;;;;4875605;29;20497;-80
2024/01/13 12:38:30;;;;;;;52.58;21.98;;;3.70;99.90;;;;;;4872129;29;20470;-79
2024/01/13 12:40:57;;;;;;;42.15;19.02;;;3.70;99.90;;;;;;4869454;29;20055;-80
2024/01/13 12:43:23;;;;;;;44.80;19.27;;;3.70;99.90;;;;;;4859453;29;20060;-81
2024/01/13 12:45:50;;;;;;;48.97;20.17;;;3.70;99.90;;;;;;4888309;29;20048;-81
2024/01/13 12:48:16;;;;;;;50.50;22.42;;;3.70;99.90;;;;;;4872003;29;20045;-82